Time;durP1;ratioP1;P1;durP2;ratioP2;P2;SDS_P1;SDS_P2;PMS_P1;PMS_P2;Temp;Humidity;BMP_temperature;BMP_pressure;BME280_temperature;BME280_humidity;BME280_pressure;Samples;Min_cycle;Max_cycle;Signal;HPM_P1;HPM_P2
2021/09/27 00:02:08;;;;;;;1999.90;999.90;;;;;;;17.21;52.37;101098.13;4948301;28;97095;-80
2021/09/27 00:04:36;;;;;;;1999.90;999.90;;;;;;;17.22;52.41;101099.94;4964812;28;98995;-80
2021/09/27 00:07:04;;;;;;;1999.90;999.90;;;;;;;17.22;52.50;101105.31;4966256;28;97583;-77
2021/09/27 00:09:33;;;;;;;1999.90;999.90;;;;;;;17.21;52.60;101098.13;4947117;28;97049;-79
2021/09/27 00:12:01;;;;;;;1999.90;999.90;;;;;;;17.22;52.68;101099.94;4948930;28;97845;-78
2021/09/27 00:14:31;;;;;;;1999.90;999.90;;;;;;;17.22;52.67;101100.81;4996958;28;100367;-79
2021/09/27 00:17:00;;;;;;;1999.90;999.90;;;;;;;17.22;52.78;101099.94;4965976;28;98018;-79
2021/09/27 00:19:27;;;;;;;1999.90;999.90;;;;;;;17.24;52.66;101095.41;4962753;28;97139;-77
2021/09/27 00:21:56;;;;;;;1999.90;999.90;;;;;;;17.23;52.56;101096.34;4966492;28;96800;-78
2021/09/27 00:24:23;;;;;;;1999.90;999.90;;;;;;;17.21;52.62;101107.09;4966321;28;97666;-78
2021/09/27 00:26:51;;;;;;;1999.90;999.90;;;;;;;17.20;52.75;101107.09;4963662;28;99840;-77
2021/09/27 00:29:19;;;;;;;1999.90;999.90;;;;;;;17.20;52.71;101096.34;4963515;28;97306;-78
2021/09/27 00:31:48;;;;;;;1999.90;999.90;;;;;;;17.19;53.03;101100.81;4964928;28;97485;-79
2021/09/27 00:34:19;;;;;;;1999.90;999.90;;;;;;;17.15;53.15;101101.72;4965608;28;98948;-78
2021/09/27 00:36:47;;;;;;;1999.90;999.90;;;;;;;17.15;52.95;101111.56;4965076;28;97523;-78
2021/09/27 00:39:14;;;;;;;1999.90;999.90;;;;;;;17.09;53.32;101112.47;4965939;28;97075;-77
2021/09/27 00:41:43;;;;;;;1999.90;999.90;;;;;;;17.04;53.31;101114.28;4964678;28;96903;-77
2021/09/27 00:44:11;;;;;;;1999.90;999.90;;;;;;;17.02;53.46;101114.28;4964983;28;97959;-78
2021/09/27 00:46:38;;;;;;;1999.90;999.90;;;;;;;17.00;53.45;101112.47;4965758;28;97590;-78
2021/09/27 00:49:08;;;;;;;1999.90;999.90;;;;;;;16.99;53.62;101114.28;4964246;28;97464;-77
2021/09/27 00:51:39;;;;;;;1999.90;999.90;;;;;;;16.98;53.57;101120.53;4965446;28;97165;-78
2021/09/27 00:54:09;;;;;;;1999.90;999.90;;;;;;;16.99;53.39;101126.81;4963778;28;99763;-78
2021/09/27 00:56:39;;;;;;;1999.90;999.90;;;;;;;16.96;53.87;101118.78;4963491;28;97645;-76
2021/09/27 00:59:08;;;;;;;1999.90;999.90;;;;;;;16.96;53.79;101137.59;4964007;28;97273;-76
2021/09/27 01:01:36;;;;;;;1999.90;999.90;;;;;;;16.94;53.51;101134.88;4967607;28;96963;-77
2021/09/27 01:04:05;;;;;;;1999.90;999.90;;;;;;;16.93;53.97;101134.88;4950916;28;99676;-77
2021/09/27 01:06:50;;;;;;;1999.90;999.90;;;;;;;16.91;53.85;101129.50;4969077;28;98524;-78
2021/09/27 01:09:26;;;;;;;1999.90;999.90;;;;;;;16.93;53.89;101130.41;4968008;28;96873;-78
2021/09/27 01:12:16;;;;;;;1999.90;999.90;;;;;;;16.94;53.97;101136.69;4969339;28;96887;-77
2021/09/27 01:14:58;;;;;;;1999.90;999.90;;;;;;;16.94;53.70;101124.13;4968113;28;99066;-78
2021/09/27 01:17:34;;;;;;;1999.90;999.90;;;;;;;16.92;53.89;101133.09;4999792;28;98756;-77
2021/09/27 01:20:14;;;;;;;1999.90;999.90;;;;;;;16.90;53.95;101145.63;4966964;28;96757;-77
2021/09/27 01:22:56;;;;;;;1999.90;999.90;;;;;;;16.88;53.87;101158.19;4949458;28;98868;-78
2021/09/27 01:25:44;;;;;;;1999.90;999.90;;;;;;;16.85;54.17;101175.19;4967336;28;98269;-79
2021/09/27 01:28:21;;;;;;;1999.90;999.90;;;;;;;16.88;53.89;101193.13;4967058;28;101563;-77
2021/09/27 01:30:57;;;;;;;1999.90;999.90;;;;;;;16.84;53.86;101200.28;4966472;28;96988;-78
2021/09/27 01:33:29;;;;;;;1999.90;999.90;;;;;;;16.83;54.19;101198.50;4968448;28;97221;-76
2021/09/27 01:36:04;;;;;;;1999.90;999.90;;;;;;;16.78;54.08;101170.69;4967545;28;98564;-77
2021/09/27 01:38:37;;;;;;;1999.90;999.90;;;;;;;16.68;54.03;101166.19;4966210;28;98775;-78
2021/09/27 01:41:12;;;;;;;1999.90;999.90;;;;;;;16.58;53.76;101163.47;4967155;28;97519;-77
2021/09/27 01:43:43;;;;;;;1999.90;999.90;;;;;;;16.49;54.06;101168.84;4983495;28;97289;-76
2021/09/27 01:46:16;;;;;;;1999.90;999.90;;;;;;;16.43;54.07;101174.16;4966052;28;97719;-76
2021/09/27 01:48:52;;;;;;;1999.90;999.90;;;;;;;16.40;54.47;101190.25;4966337;28;97622;-76
2021/09/27 01:51:26;;;;;;;1999.90;999.90;;;;;;;16.40;54.19;101190.25;4983382;28;97110;-77
2021/09/27 01:54:01;;;;;;;1999.90;999.90;;;;;;;16.41;54.23;101192.06;4950942;28;97404;-76
2021/09/27 01:56:36;;;;;;;1999.90;999.90;;;;;;;16.38;54.16;101203.69;4997751;28;99056;-77
2021/09/27 01:59:10;;;;;;;1999.90;999.90;;;;;;;16.38;54.26;101214.44;4949520;28;101225;-76
2021/09/27 02:01:45;;;;;;;1999.90;999.90;;;;;;;16.38;54.22;101224.31;4965052;28;98009;-77
2021/09/27 02:04:21;;;;;;;1999.90;999.90;;;;;;;16.38;54.45;101235.06;4981133;28;97781;-77
2021/09/27 02:06:52;;;;;;;1999.90;999.90;;;;;;;16.33;54.53;101252.91;4963887;28;99633;-75
2021/09/27 02:09:22;;;;;;;1999.90;999.90;;;;;;;16.29;54.59;101268.09;4948982;28;100222;-77
2021/09/27 02:11:54;;;;;;;1999.90;999.90;;;;;;;16.29;54.53;101262.75;4967977;28;97881;-77
2021/09/27 02:14:26;;;;;;;1999.90;999.90;;;;;;;16.29;54.84;101252.00;4948116;28;98002;-75
2021/09/27 02:17:00;;;;;;;1999.90;999.90;;;;;;;16.25;54.71;101241.25;4966978;28;98735;-75
2021/09/27 02:19:34;;;;;;;1999.90;999.90;;;;;;;16.21;54.76;101242.13;4965912;28;97956;-76
2021/09/27 02:22:07;;;;;;;1999.90;999.90;;;;;;;16.20;54.75;101240.28;4965321;28;97634;-77
2021/09/27 02:24:40;;;;;;;1999.90;999.90;;;;;;;16.19;55.04;101244.78;4966185;28;97702;-76
2021/09/27 02:27:08;;;;;;;1999.90;999.90;;;;;;;16.20;55.01;101234.94;4964563;28;99391;-76
2021/09/27 02:29:36;;;;;;;1999.90;999.90;;;;;;;16.18;55.31;101236.72;4966409;28;97798;-78
2021/09/27 02:32:10;;;;;;;1999.90;999.90;;;;;;;16.19;55.33;101227.78;4966410;28;97380;-78
2021/09/27 02:34:46;;;;;;;1999.90;999.90;;;;;;;16.12;55.13;101234.00;4967250;28;97506;-78
2021/09/27 02:37:19;;;;;;;1999.90;999.90;;;;;;;16.08;55.21;101233.09;4965818;28;97668;-77
2021/09/27 02:39:53;;;;;;;1999.90;999.90;;;;;;;16.05;55.64;101231.28;4965501;28;99260;-77
2021/09/27 02:42:30;;;;;;;1999.90;999.90;;;;;;;16.07;55.81;101223.22;4966270;28;96822;-77
2021/09/27 02:45:00;;;;;;;1999.90;999.90;;;;;;;16.09;55.62;101216.09;4967720;28;96778;-78
2021/09/27 02:47:32;;;;;;;1999.90;999.90;;;;;;;16.10;55.80;101224.13;4966291;28;97459;-76
2021/09/27 02:50:03;;;;;;;1999.90;999.90;;;;;;;16.10;56.10;101216.09;4948456;28;99617;-77
2021/09/27 02:52:32;;;;;;;1999.90;999.90;;;;;;;16.12;55.90;101220.59;4998432;28;98268;-79
2021/09/27 02:55:03;;;;;;;1999.90;999.90;;;;;;;16.14;56.05;101208.06;4965528;28;96952;-79
2021/09/27 02:57:46;;;;;;;1999.90;999.90;;;;;;;16.10;56.21;101194.59;4996612;28;99284;-78
2021/09/27 03:00:17;;;;;;;1999.90;999.90;;;;;;;16.12;56.63;101188.38;4981017;28;99166;-77
2021/09/27 03:02:56;;;;;;;1999.90;999.90;;;;;;;16.11;56.68;101187.47;4966054;28;97056;-76
2021/09/27 03:05:33;;;;;;;1999.90;999.90;;;;;;;16.12;56.89;101183.00;4981010;28;97210;-76
2021/09/27 03:08:15;;;;;;;1999.90;999.90;;;;;;;16.15;57.20;101177.63;4963444;28;99644;-77
2021/09/27 03:10:51;;;;;;;1999.90;999.90;;;;;;;16.03;56.79;101168.63;4948685;28;99568;-77
2021/09/27 03:13:24;;;;;;;1999.90;999.90;;;;;;;15.98;56.79;101165.00;4964798;28;97686;-80
2021/09/27 03:16:02;;;;;;;1999.90;999.90;;;;;;;15.94;57.52;101156.94;4963940;28;96979;-77
2021/09/27 03:18:39;;;;;;;1999.90;999.90;;;;;;;15.96;57.68;101156.03;4947401;28;99503;-77
2021/09/27 03:21:18;;;;;;;1999.90;999.90;;;;;;;15.99;57.95;101145.31;4997351;28;99248;-77
2021/09/27 03:23:51;;;;;;;1999.90;999.90;;;;;;;16.03;58.04;101147.13;4966062;28;97295;-77
2021/09/27 03:26:26;;;;;;;1999.90;999.90;;;;;;;16.03;58.15;101131.03;4963299;28;97203;-76
2021/09/27 03:28:59;;;;;;;1999.90;999.90;;;;;;;16.05;58.03;101123.88;4965742;28;97664;-77
2021/09/27 03:31:38;;;;;;;1999.90;999.90;;;;;;;16.06;58.01;101131.06;4963824;28;97677;-76
2021/09/27 03:34:15;;;;;;;1999.90;999.90;;;;;;;16.05;57.82;101129.25;4965461;28;97486;-76
2021/09/27 03:37:05;;;;;;;1999.90;999.90;;;;;;;16.07;57.78;101138.22;4965303;28;97583;-77
2021/09/27 03:39:37;;;;;;;1999.90;999.90;;;;;;;16.08;57.88;101140.03;4980252;28;97976;-77
2021/09/27 03:42:08;;;;;;;1999.90;999.90;;;;;;;16.08;57.63;101150.78;4965542;28;98758;-79
2021/09/27 03:44:50;;;;;;;1999.90;999.90;;;;;;;16.09;57.48;101148.97;4996319;28;97145;-78
2021/09/27 03:47:21;;;;;;;1999.90;999.90;;;;;;;16.09;57.34;101148.97;4964039;28;96876;-74
2021/09/27 03:49:54;;;;;;;1999.90;999.90;;;;;;;16.08;57.21;101150.78;4963853;28;98208;-74
2021/09/27 03:52:28;;;;;;;1999.90;999.90;;;;;;;16.06;57.34;101141.81;4964092;28;97717;-76
2021/09/27 03:55:02;;;;;;;1999.90;999.90;;;;;;;16.06;56.99;101140.91;4962635;28;108578;-74
2021/09/27 03:57:33;;;;;;;1999.90;999.90;;;;;;;16.06;57.05;101133.75;4961098;28;97869;-73
2021/09/27 04:00:05;;;;;;;1999.90;999.90;;;;;;;16.05;57.23;101113.16;4978298;28;101194;-73
2021/09/27 04:02:37;;;;;;;1999.90;999.90;;;;;;;16.01;57.50;101111.34;4963758;28;98763;-71
2021/09/27 04:05:08;;;;;;;1999.90;999.90;;;;;;;15.99;57.06;101118.47;4961637;28;96951;-74
2021/09/27 04:07:47;;;;;;;1999.90;999.90;;;;;;;15.96;56.96;101113.06;4958218;28;98398;-74
2021/09/27 04:10:19;;;;;;;1999.90;999.90;;;;;;;15.95;56.96;101122.03;4960834;28;97772;-74
2021/09/27 04:13:00;;;;;;;1999.90;999.90;;;;;;;15.93;57.43;101126.50;4960601;28;99749;-74
2021/09/27 04:15:43;;;;;;;1999.90;999.90;;;;;;;15.95;57.79;101127.41;4995082;28;97847;-74
2021/09/27 04:18:16;;;;;;;1999.90;999.90;;;;;;;15.96;57.30;101126.50;4964875;28;96997;-73
2021/09/27 04:21:00;;;;;;;1999.90;999.90;;;;;;;15.92;57.95;101124.69;4946490;28;98945;-74
2021/09/27 04:23:38;;;;;;;1999.90;999.90;;;;;;;15.94;57.71;101128.28;4995632;28;99848;-74
2021/09/27 04:26:11;;;;;;;1999.90;999.90;;;;;;;15.96;57.59;101128.28;4965102;28;96930;-74
2021/09/27 04:28:56;;;;;;;1999.90;999.90;;;;;;;15.94;57.71;101133.66;4963704;28;97621;-73
2021/09/27 04:31:33;;;;;;;1999.90;999.90;;;;;;;15.94;57.77;101130.97;4964300;28;98489;-75
2021/09/27 04:34:26;;;;;;;1999.90;999.90;;;;;;;15.94;57.58;101135.47;4963591;28;97671;-74
2021/09/27 04:36:58;;;;;;;1999.90;999.90;;;;;;;15.94;57.56;101130.97;4966434;28;98040;-73
2021/09/27 04:39:30;;;;;;;1999.90;999.90;;;;;;;15.97;57.85;101128.31;4965831;28;97035;-74
2021/09/27 04:42:14;;;;;;;1999.90;999.90;;;;;;;15.95;57.79;101130.09;4949673;28;98340;-74
2021/09/27 04:44:55;;;;;;;1999.90;999.90;;;;;;;15.95;57.76;101131.88;4962973;28;98968;-74
2021/09/27 04:47:28;;;;;;;1999.90;999.90;;;;;;;15.93;57.58;101123.81;4964718;28;98132;-74
2021/09/27 04:50:07;;;;;;;1999.90;999.90;;;;;;;15.93;57.92;101121.13;4968133;28;97165;-73
2021/09/27 04:52:43;;;;;;;1999.90;999.90;;;;;;;15.94;57.76;101124.72;4967183;28;99510;-73
2021/09/27 04:55:41;;;;;;;1999.90;999.90;;;;;;;15.93;57.77;101126.50;4967293;28;97568;-79
2021/09/27 04:58:21;;;;;;;1999.90;999.90;;;;;;;15.92;57.75;101121.13;4967307;28;97470;-74
2021/09/27 05:00:59;;;;;;;1999.90;999.90;;;;;;;15.91;57.72;101128.28;4966841;28;97048;-73
2021/09/27 05:03:40;;;;;;;1999.90;999.90;;;;;;;15.91;57.65;101120.22;4966861;28;97627;-74
2021/09/27 05:06:27;;;;;;;1999.90;999.90;;;;;;;15.90;57.71;101129.16;4967587;28;99203;-74
2021/09/27 05:09:04;;;;;;;1999.90;999.90;;;;;;;15.92;57.92;101134.56;4967836;28;97411;-74
2021/09/27 05:11:57;;;;;;;1999.90;999.90;;;;;;;15.90;58.11;101134.50;4966803;28;97092;-73
2021/09/27 05:14:35;;;;;;;1999.90;999.90;;;;;;;15.91;57.97;101139.00;4966078;28;97700;-74
2021/09/27 05:17:13;;;;;;;1999.90;999.90;;;;;;;15.89;57.77;101145.25;4999907;28;99274;-74
2021/09/27 05:20:06;;;;;;;1999.90;999.90;;;;;;;15.87;57.69;101147.94;4963949;28;97941;-73
2021/09/27 05:22:48;;;;;;;1999.90;999.90;;;;;;;15.87;57.94;101145.25;4950685;28;98141;-74
2021/09/27 05:26:02;;;;;;;1999.90;999.90;;;;;;;15.87;58.04;101145.25;4967132;28;97647;-74
2021/09/27 05:28:44;;;;;;;1999.90;999.90;;;;;;;15.88;58.09;101144.38;4966137;28;96971;-74
2021/09/27 05:31:22;;;;;;;1999.90;999.90;;;;;;;15.88;57.89;101149.75;4965187;28;97982;-74
2021/09/27 05:33:54;;;;;;;1999.90;999.90;;;;;;;15.86;58.01;101145.25;4965751;28;98076;-73
2021/09/27 05:36:35;;;;;;;1999.90;999.90;;;;;;;15.85;57.82;101148.78;4967179;28;97244;-74
2021/09/27 05:39:09;;;;;;;1999.90;999.90;;;;;;;15.85;57.83;101147.03;4964691;28;97912;-73
2021/09/27 05:41:45;;;;;;;1999.90;999.90;;;;;;;15.86;57.95;101143.47;4966724;28;97408;-73
2021/09/27 05:44:29;;;;;;;1999.90;999.90;;;;;;;15.86;58.16;101143.47;4967496;28;96899;-73
2021/09/27 05:47:21;;;;;;;1999.90;999.90;;;;;;;15.87;58.47;101145.25;4966332;28;98923;-73
2021/09/27 05:49:57;;;;;;;1999.90;999.90;;;;;;;15.90;58.39;101145.25;4964042;28;97311;-73
2021/09/27 05:52:31;;;;;;;1999.90;999.90;;;;;;;15.91;58.23;101148.84;4999051;28;96889;-73
2021/09/27 05:55:04;;;;;;;1999.90;999.90;;;;;;;15.90;58.19;101152.44;4965616;28;97706;-73
2021/09/27 05:57:40;;;;;;;1999.90;999.90;;;;;;;15.91;58.32;101152.44;4965242;28;96993;-73
2021/09/27 06:00:14;;;;;;;1999.90;999.90;;;;;;;15.91;58.45;101152.44;4965722;28;98964;-73
2021/09/27 06:02:55;;;;;;;1999.90;999.90;;;;;;;15.93;58.39;101150.66;4982488;28;97400;-73
2021/09/27 06:05:28;;;;;;;1999.90;999.90;;;;;;;15.95;58.71;101153.34;4965183;28;96990;-73
2021/09/27 06:08:01;;;;;;;1999.90;999.90;;;;;;;15.93;58.27;101145.28;4965982;28;98161;-73
2021/09/27 06:10:31;;;;;;;1999.90;999.90;;;;;;;15.95;58.51;101145.28;4966027;28;97067;-73
2021/09/27 06:13:12;;;;;;;1999.90;999.90;;;;;;;15.97;58.47;101151.56;4966666;28;97599;-73
2021/09/27 06:15:46;;;;;;;1999.90;999.90;;;;;;;16.00;58.19;101156.94;4999213;28;97633;-72
2021/09/27 06:18:29;;;;;;;1999.90;999.90;;;;;;;16.00;58.65;101149.81;4966664;28;97781;-74
2021/09/27 06:21:04;;;;;;;1999.90;999.90;;;;;;;16.00;58.57;101152.50;4966773;28;97656;-73
2021/09/27 06:23:52;;;;;;;1999.90;999.90;;;;;;;16.01;58.38;101159.66;4967469;28;97568;-73
2021/09/27 06:26:22;;;;;;;1999.90;999.90;;;;;;;16.02;58.50;101148.03;4965927;28;97248;-73
2021/09/27 06:29:05;;;;;;;1999.90;999.90;;;;;;;16.05;58.30;101155.19;4964895;28;97107;-72
2021/09/27 06:31:38;;;;;;;1999.90;999.90;;;;;;;16.05;58.71;101150.75;4966220;28;98750;-74
2021/09/27 06:34:11;;;;;;;1999.90;999.90;;;;;;;16.05;58.49;101155.19;4966169;28;96875;-73
2021/09/27 06:36:39;;;;;;;1999.90;999.90;;;;;;;16.07;58.36;101165.06;4966059;28;97754;-73
2021/09/27 06:39:08;;;;;;;1999.90;999.90;;;;;;;16.07;58.50;101161.47;4965674;28;97713;-73
2021/09/27 06:41:37;;;;;;;1999.90;999.90;;;;;;;16.08;58.30;101155.25;4981611;28;97647;-73
2021/09/27 06:44:05;;;;;;;1999.90;999.90;;;;;;;16.07;58.56;101153.41;4965026;28;97063;-73
2021/09/27 06:46:34;;;;;;;1999.90;999.90;;;;;;;16.09;58.41;101147.19;4965682;28;96796;-73
2021/09/27 06:49:02;;;;;;;1999.90;999.90;;;;;;;16.09;58.75;101147.19;4979823;28;99667;-72
2021/09/27 06:51:30;;;;;;;1999.90;999.90;;;;;;;16.11;58.62;101139.13;4948004;28;100252;-73
2021/09/27 06:53:58;;;;;;;1999.90;999.90;;;;;;;16.13;58.57;101137.34;4965853;28;97990;-73
2021/09/27 06:56:30;;;;;;;1999.90;999.90;;;;;;;16.14;58.47;101143.63;4966234;28;96641;-73
2021/09/27 06:58:58;;;;;;;1999.90;999.90;;;;;;;16.15;58.47;101145.41;4964662;28;100175;-72
2021/09/27 07:01:25;;;;;;;1999.90;999.90;;;;;;;16.14;58.28;101149.00;4979675;28;99490;-72
2021/09/27 07:03:55;;;;;;;1999.90;999.90;;;;;;;16.13;58.46;101152.56;4966930;28;97115;-72
2021/09/27 07:06:22;;;;;;;1999.90;999.90;;;;;;;16.12;58.43;101145.41;4967416;28;97213;-73
2021/09/27 07:08:50;;;;;;;1999.90;999.90;;;;;;;16.14;58.36;101149.00;4948471;28;98990;-74
2021/09/27 07:11:18;;;;;;;1999.90;999.90;;;;;;;16.09;58.00;101141.81;4963962;28;98488;-74
2021/09/27 07:13:46;;;;;;;1999.90;999.90;;;;;;;16.07;58.38;101150.75;4998122;28;97914;-72
2021/09/27 07:16:14;;;;;;;1999.90;999.90;;;;;;;16.06;58.00;101143.59;4997488;28;97191;-73
2021/09/27 07:19:03;;;;;;;1999.90;999.90;;;;;;;16.07;58.14;101146.28;4963715;28;99064;-73
2021/09/27 07:21:31;;;;;;;1999.90;999.90;;;;;;;16.08;58.00;101156.13;4981255;28;98336;-73
2021/09/27 07:23:59;;;;;;;1999.90;999.90;;;;;;;16.09;58.31;101157.00;4966802;28;96898;-72
2021/09/27 07:26:27;;;;;;;1999.90;999.90;;;;;;;16.09;58.53;101163.28;4964692;28;96916;-73
2021/09/27 07:28:56;;;;;;;1999.90;999.90;;;;;;;16.08;58.46;101158.81;4948078;28;98890;-73
2021/09/27 07:31:27;;;;;;;1999.90;999.90;;;;;;;16.08;58.25;101150.78;4965855;28;98069;-72
2021/09/27 07:33:56;;;;;;;1999.90;999.90;;;;;;;16.10;58.38;101143.59;4966775;28;97183;-72
2021/09/27 07:36:25;;;;;;;1999.90;999.90;;;;;;;16.13;58.46;101152.56;4963550;28;97491;-74
2021/09/27 07:38:53;;;;;;;1999.90;999.90;;;;;;;16.10;58.44;101146.28;4965076;28;97912;-74
2021/09/27 07:41:21;;;;;;;1999.90;999.90;;;;;;;16.10;58.26;101153.47;4965219;28;99128;-73
2021/09/27 07:43:49;;;;;;;1999.90;999.90;;;;;;;16.12;58.31;101150.78;4966912;28;97157;-74
2021/09/27 07:46:18;;;;;;;1999.90;999.90;;;;;;;16.16;58.54;101148.09;4967127;28;97275;-73
2021/09/27 07:48:48;;;;;;;1999.90;999.90;;;;;;;16.17;59.10;101162.41;4966283;28;98325;-72
2021/09/27 07:51:15;;;;;;;1999.90;999.90;;;;;;;16.19;58.82;101157.97;4965169;28;99969;-72
2021/09/27 07:53:45;;;;;;;1999.90;999.90;;;;;;;16.21;58.75;101157.09;4965277;28;97738;-73
2021/09/27 07:56:12;;;;;;;1999.90;999.90;;;;;;;16.21;58.73;101159.78;4999756;28;97817;-73
2021/09/27 07:58:40;;;;;;;1999.90;999.90;;;;;;;16.24;58.27;101161.56;4967094;28;98143;-71
2021/09/27 08:01:08;;;;;;;1999.90;999.90;;;;;;;16.27;58.45;101158.91;4968865;28;98794;-73
2021/09/27 08:03:36;;;;;;;1999.90;999.90;;;;;;;16.30;58.24;101156.22;4949892;28;97411;-71
2021/09/27 08:06:04;;;;;;;1999.90;999.90;;;;;;;16.29;58.31;101155.31;4968290;28;96917;-73
2021/09/27 08:08:32;;;;;;;1999.90;999.90;;;;;;;16.31;58.35;101144.56;4982663;28;99004;-73
2021/09/27 08:11:01;;;;;;;1999.90;999.90;;;;;;;16.32;58.37;101157.13;4980204;28;98387;-74
2021/09/27 08:13:29;;;;;;;1999.90;999.90;;;;;;;16.32;58.24;101155.34;4967073;28;97856;-73
2021/09/27 08:15:57;;;;;;;1999.90;999.90;;;;;;;16.31;58.25;101156.22;4965009;28;97349;-73
2021/09/27 08:18:25;;;;;;;1999.90;999.90;;;;;;;16.31;58.02;101148.16;4965967;28;97679;-72
2021/09/27 08:20:55;;;;;;;1999.90;999.90;;;;;;;16.34;57.95;101152.66;4966259;28;97756;-73
2021/09/27 08:23:24;;;;;;;1999.90;999.90;;;;;;;16.34;58.23;101149.97;4966527;28;96912;-73
2021/09/27 08:25:53;;;;;;;1999.90;999.90;;;;;;;16.37;57.92;101147.28;4997577;28;96556;-74
2021/09/27 08:28:25;;;;;;;1999.90;999.90;;;;;;;16.38;58.15;101149.97;4963751;28;98180;-75
2021/09/27 08:30:55;;;;;;;1999.90;999.90;;;;;;;16.40;58.05;101152.66;4963902;28;99226;-73
2021/09/27 08:33:24;;;;;;;1999.90;999.90;;;;;;;16.42;58.29;101146.41;4965626;28;97288;-73
2021/09/27 08:35:54;;;;;;;1999.90;999.90;;;;;;;16.45;58.24;101154.47;4964408;28;96949;-73
2021/09/27 08:38:23;;;;;;;1999.90;999.90;;;;;;;16.49;58.14;101158.09;4965258;28;98145;-73
2021/09/27 08:41:04;;;;;;;1999.90;999.90;;;;;;;16.53;58.17;101160.75;4964376;28;97741;-73
2021/09/27 08:43:48;;;;;;;1999.90;999.90;;;;;;;16.59;58.30;101162.56;4966679;28;97164;-74
2021/09/27 08:46:22;;;;;;;1999.90;999.90;;;;;;;16.60;58.27;101167.94;4965083;28;97813;-73
2021/09/27 08:48:54;;;;;;;1999.90;999.90;;;;;;;16.62;57.98;101167.94;4947299;28;99296;-74
2021/09/27 08:51:21;;;;;;;1999.90;999.90;;;;;;;16.64;58.13;101159.00;4963199;28;96871;-74
2021/09/27 08:53:52;;;;;;;1999.90;999.90;;;;;;;16.68;57.89;101165.28;4996827;28;97140;-74
2021/09/27 08:56:25;;;;;;;1999.90;999.90;;;;;;;16.70;58.19;101158.13;4964478;28;97380;-74
2021/09/27 08:58:58;;;;;;;1999.90;999.90;;;;;;;16.70;57.77;101159.06;4996067;28;98173;-74
2021/09/27 09:01:32;;;;;;;1999.90;999.90;;;;;;;16.72;57.74;101161.75;4963501;28;97686;-74
2021/09/27 09:04:03;;;;;;;1999.90;999.90;;;;;;;16.75;57.58;101157.28;4963481;28;98589;-73
2021/09/27 09:06:34;;;;;;;1999.90;999.90;;;;;;;16.77;57.53;101166.25;4965761;28;97031;-73
2021/09/27 09:09:06;;;;;;;1999.90;999.90;;;;;;;16.78;57.55;101153.69;4965494;28;97783;-74
2021/09/27 09:11:39;;;;;;;1999.90;999.90;;;;;;;16.81;57.75;101151.91;4963742;28;100084;-74
2021/09/27 09:14:16;;;;;;;1999.90;999.90;;;;;;;16.82;57.97;101142.03;4980758;28;96882;-74
2021/09/27 09:16:45;;;;;;;1999.90;999.90;;;;;;;16.85;57.60;101140.25;4964474;28;97076;-74
2021/09/27 09:19:18;;;;;;;1999.90;999.90;;;;;;;16.88;57.44;101147.44;4963100;28;99559;-75
2021/09/27 09:21:51;;;;;;;1999.90;999.90;;;;;;;16.90;57.44;101148.34;4964156;28;97632;-74
2021/09/27 09:24:24;;;;;;;1999.90;999.90;;;;;;;16.90;57.47;101157.31;4968782;28;97683;-74
2021/09/27 09:26:53;;;;;;;1999.90;999.90;;;;;;;16.93;57.29;101157.28;4966323;28;98564;-73
2021/09/27 09:29:35;;;;;;;1999.90;999.90;;;;;;;16.94;57.21;101152.81;4966690;28;99130;-74
2021/09/27 09:32:12;;;;;;;1999.90;999.90;;;;;;;16.93;57.01;101157.28;4966755;28;99211;-74
2021/09/27 09:34:40;;;;;;;1999.90;999.90;;;;;;;16.92;57.37;101154.59;4967100;28;97587;-74
2021/09/27 09:37:15;;;;;;;1999.90;999.90;;;;;;;16.96;57.29;101156.41;4999277;28;97691;-73
2021/09/27 09:39:55;;;;;;;1999.90;999.90;;;;;;;16.98;57.08;101146.56;4967263;28;98014;-73
2021/09/27 09:42:26;;;;;;;1999.90;999.90;;;;;;;16.98;57.59;101150.13;4967009;28;99065;-74
2021/09/27 09:44:56;;;;;;;1999.90;999.90;;;;;;;16.98;56.94;101149.25;4967210;28;96897;-73
2021/09/27 09:47:26;;;;;;;1999.90;999.90;;;;;;;16.96;57.16;101151.03;4966693;28;96922;-73
2021/09/27 09:49:58;;;;;;;1999.90;999.90;;;;;;;16.95;56.85;101154.59;4966364;28;98779;-73
2021/09/27 09:52:34;;;;;;;1999.90;999.90;;;;;;;16.95;56.88;101157.28;4997764;28;97668;-73
2021/09/27 09:55:14;;;;;;;1999.90;999.90;;;;;;;16.94;56.96;101158.19;4956601;28;97228;-74
2021/09/27 09:57:45;;;;;;;1999.90;999.90;;;;;;;16.96;57.01;101151.03;4955308;28;97549;-73
2021/09/27 10:00:20;;;;;;;1999.90;999.90;;;;;;;16.97;57.18;101148.34;4965419;28;99986;-74
2021/09/27 10:02:52;;;;;;;1999.90;999.90;;;;;;;17.01;56.67;101154.63;4966151;28;99207;-74
2021/09/27 10:05:24;;;;;;;1999.90;999.90;;;;;;;17.01;56.69;101151.94;4967543;28;96959;-73
2021/09/27 10:07:55;;;;;;;1999.90;999.90;;;;;;;17.01;57.00;101143.84;4967277;28;97127;-73
2021/09/27 10:10:30;;;;;;;1999.90;999.90;;;;;;;17.01;56.93;101146.53;4997428;28;97640;-73
2021/09/27 10:12:59;;;;;;;1999.90;999.90;;;;;;;17.04;56.68;101143.84;4967248;28;97613;-73
2021/09/27 10:15:41;;;;;;;1999.90;999.90;;;;;;;17.06;56.46;101142.06;4966779;28;97392;-74
2021/09/27 10:18:21;;;;;;;1999.90;999.90;;;;;;;17.08;56.41;101140.28;4964616;28;96894;-74
2021/09/27 10:21:08;;;;;;;1999.90;999.90;;;;;;;17.08;56.24;101141.19;4965122;28;99656;-75
2021/09/27 10:23:40;;;;;;;1999.90;999.90;;;;;;;17.07;56.24;101141.19;4965694;28;97144;-73
2021/09/27 10:26:20;;;;;;;1999.90;999.90;;;;;;;16.79;57.18;101133.97;4999458;28;97557;-75
2021/09/27 10:28:51;;;;;;;1999.90;999.90;;;;;;;17.01;56.54;101133.09;4965848;28;97056;-73
2021/09/27 10:31:23;;;;;;;1999.90;999.90;;;;;;;17.07;56.23;101130.44;4965839;28;98957;-73
2021/09/27 10:33:54;;;;;;;1999.90;999.90;;;;;;;17.13;56.37;101135.78;4965948;28;98523;-73
2021/09/27 10:36:24;;;;;;;1999.90;999.90;;;;;;;17.18;56.11;101135.78;4964908;28;98004;-74
2021/09/27 10:38:58;;;;;;;1999.90;999.90;;;;;;;17.22;56.19;101133.09;4948893;28;96907;-73
2021/09/27 10:41:29;;;;;;;1999.90;999.90;;;;;;;17.25;55.96;101133.09;4966236;28;97886;-73
2021/09/27 10:43:59;;;;;;;1999.90;999.90;;;;;;;17.29;56.08;101134.88;4966508;28;97560;-74
2021/09/27 10:46:34;;;;;;;1999.90;999.90;;;;;;;17.34;55.97;101130.41;4966831;28;96938;-73
2021/09/27 10:49:05;;;;;;;1999.90;999.90;;;;;;;17.38;55.98;101134.03;4966065;28;97204;-73
2021/09/27 10:51:38;;;;;;;1999.90;999.90;;;;;;;17.39;55.98;101128.63;4965863;28;97679;-73
2021/09/27 10:54:15;;;;;;;1999.90;999.90;;;;;;;17.43;55.69;101133.13;4965933;28;98813;-75
2021/09/27 10:56:48;;;;;;;1999.90;999.90;;;;;;;17.45;55.58;101134.03;4965801;28;97068;-73
2021/09/27 10:59:30;;;;;;;1999.90;999.90;;;;;;;17.48;55.56;101141.16;4965726;28;97407;-74
2021/09/27 11:02:03;;;;;;;1999.90;999.90;;;;;;;17.49;55.22;101135.78;4995104;28;97472;-74
2021/09/27 11:04:34;;;;;;;1999.90;999.90;;;;;;;17.51;55.11;101135.81;4965427;28;98035;-74
2021/09/27 11:07:15;;;;;;;1999.90;999.90;;;;;;;17.56;55.25;101134.00;4965094;28;96846;-75
2021/09/27 11:09:45;;;;;;;1999.90;999.90;;;;;;;17.60;55.04;101133.09;4966826;28;97888;-74
2021/09/27 11:12:18;;;;;;;1999.90;999.90;;;;;;;17.60;55.07;101133.97;4965169;28;98934;-74
2021/09/27 11:14:50;;;;;;;1999.90;999.90;;;;;;;17.60;55.10;101142.03;4965636;28;97554;-74
2021/09/27 11:17:25;;;;;;;1999.90;999.90;;;;;;;17.61;54.94;101132.19;4964575;28;97520;-74